createdAt,value
2023-03-13T00:01:44.011Z,4.93
2023-03-13T00:04:11.739Z,4.80
2023-03-13T00:06:44.722Z,4.85
2023-03-13T00:09:15.850Z,4.63
2023-03-13T00:11:44.802Z,4.40
2023-03-13T00:14:13.246Z,4.40
2023-03-13T00:16:44.228Z,4.00
2023-03-13T00:19:12.362Z,4.85
2023-03-13T00:21:41.406Z,4.47
2023-03-13T00:24:15.718Z,3.67
2023-03-13T00:26:43.275Z,3.83
2023-03-13T00:29:10.853Z,3.63
2023-03-13T00:31:45.353Z,3.17
2023-03-13T00:34:13.135Z,2.97
2023-03-13T00:36:40.841Z,2.85
2023-03-13T00:39:14.092Z,3.25
2023-03-13T00:41:41.802Z,3.10
2023-03-13T00:44:13.819Z,3.20
2023-03-13T00:46:43.382Z,2.58
2023-03-13T00:49:11.098Z,1.92
2023-03-13T00:51:42.545Z,2.38
2023-03-13T00:54:10.228Z,2.58
2023-03-13T00:56:42.398Z,2.42
2023-03-13T00:59:10.309Z,2.58
2023-03-13T01:01:38.110Z,1.92
2023-03-13T01:04:07.471Z,2.65
2023-03-13T01:06:36.467Z,2.70
2023-03-13T01:09:05.161Z,2.80
2023-03-13T01:11:35.500Z,2.78
2023-03-13T01:14:05.748Z,2.53
2023-03-13T01:16:38.406Z,3.20
2023-03-13T01:19:13.110Z,2.80
2023-03-13T01:21:42.174Z,3.40
2023-03-13T01:24:10.300Z,3.00
2023-03-13T01:26:40.498Z,2.67
2023-03-13T01:29:08.016Z,3.00
2023-03-13T01:31:36.337Z,3.65
2023-03-13T01:34:06.206Z,4.38
2023-03-13T01:36:36.897Z,4.55
2023-03-13T01:39:05.150Z,4.55
2023-03-13T01:41:42.013Z,6.30
2023-03-13T01:44:24.753Z,6.68
2023-03-13T01:46:52.711Z,7.40
2023-03-13T01:49:33.372Z,7.40
2023-03-13T01:52:03.997Z,6.65
2023-03-13T01:54:35.272Z,6.97
2023-03-13T01:59:46.356Z,6.75
2023-03-13T02:02:17.353Z,5.85
2023-03-13T02:04:47.474Z,6.55
2023-03-13T02:07:21.816Z,6.73
2023-03-13T02:09:52.209Z,6.15
2023-03-13T02:12:36.698Z,5.18
2023-03-13T02:15:15.924Z,6.72
2023-03-13T02:17:43.529Z,6.03
2023-03-13T02:20:13.379Z,6.22
2023-03-13T02:23:02.160Z,7.43
2023-03-13T02:25:42.296Z,5.60
2023-03-13T02:28:25.322Z,5.78
2023-03-13T02:30:58.892Z,4.68
2023-03-13T02:33:31.830Z,6.72
2023-03-13T02:35:59.999Z,5.93
2023-03-13T02:38:29.347Z,5.38
2023-03-13T02:40:57.042Z,4.93
2023-03-13T02:43:27.728Z,5.18
2023-03-13T02:46:05.742Z,6.68
2023-03-13T02:48:42.585Z,5.93
2023-03-13T02:51:32.945Z,7.38
2023-03-13T02:56:42.331Z,8.60
2023-03-13T02:59:09.752Z,9.35
2023-03-13T03:01:37.676Z,10.82
2023-03-13T03:04:05.307Z,10.90
2023-03-13T03:06:36.315Z,10.32
2023-03-13T03:09:03.980Z,10.13
2023-03-13T03:11:31.501Z,9.65
2023-03-13T03:13:59.281Z,10.60
2023-03-13T03:16:27.081Z,10.23
2023-03-13T03:18:55.803Z,11.45
2023-03-13T03:21:24.166Z,11.50
2023-03-13T03:23:51.847Z,10.65
2023-03-13T03:26:19.339Z,11.10
2023-03-13T03:28:46.827Z,10.20
2023-03-13T03:31:19.723Z,9.43
2023-03-13T03:33:47.759Z,9.40
2023-03-13T03:36:17.863Z,10.02
2023-03-13T03:38:45.984Z,10.07
2023-03-13T03:41:14.864Z,11.07
2023-03-13T03:43:42.694Z,9.25
2023-03-13T03:46:10.282Z,9.73
2023-03-13T03:48:39.128Z,10.45
2023-03-13T03:51:07.994Z,9.68
2023-03-13T03:53:38.530Z,9.20
2023-03-13T03:56:07.028Z,8.15
2023-03-13T03:58:34.416Z,8.75
2023-03-13T04:01:02.127Z,9.23
2023-03-13T04:03:30.391Z,9.15
2023-03-13T04:06:00.102Z,8.60
2023-03-13T04:08:27.605Z,7.70
2023-03-13T04:10:58.131Z,6.78
2023-03-13T04:13:26.039Z,7.75
2023-03-13T04:15:53.517Z,6.88
2023-03-13T04:18:21.094Z,7.22
2023-03-13T04:20:48.913Z,6.50
2023-03-13T04:23:16.681Z,6.85
2023-03-13T04:25:44.794Z,6.00
2023-03-13T04:28:12.327Z,6.10
2023-03-13T04:30:39.878Z,5.35
2023-03-13T04:33:27.317Z,5.80
2023-03-13T04:35:58.828Z,6.18
2023-03-13T04:38:26.738Z,6.20
2023-03-13T04:40:54.177Z,5.90
2023-03-13T04:43:22.778Z,5.07
2023-03-13T04:45:55.273Z,5.55
2023-03-13T04:48:26.973Z,5.88
2023-03-13T04:51:00.007Z,4.97
2023-03-13T04:53:28.241Z,3.33
2023-03-13T04:55:56.561Z,4.30
2023-03-13T04:58:25.320Z,3.53
2023-03-13T05:01:00.425Z,3.17
2023-03-13T05:03:30.031Z,3.05
2023-03-13T05:06:00.490Z,3.35
2023-03-13T05:08:41.650Z,3.28
2023-03-13T05:11:13.804Z,5.00
2023-03-13T05:13:41.234Z,4.90
2023-03-13T05:16:10.710Z,4.72
2023-03-13T05:18:39.976Z,4.35
2023-03-13T05:21:21.816Z,3.95
2023-03-13T05:23:51.237Z,3.33
2023-03-13T05:26:26.167Z,2.83
2023-03-13T05:29:02.651Z,3.63
2023-03-13T05:31:30.309Z,2.97
2023-03-13T05:33:58.751Z,2.80
2023-03-13T05:36:26.459Z,2.80
2023-03-13T05:38:56.673Z,2.80
2023-03-13T05:41:33.541Z,2.85
2023-03-13T05:44:02.595Z,2.85
2023-03-13T05:49:38.438Z,2.92
2023-03-13T05:52:12.944Z,3.38
2023-03-13T05:54:48.940Z,2.85
2023-03-13T05:57:16.446Z,2.80
2023-03-13T06:00:00.667Z,2.70
2023-03-13T06:02:34.616Z,2.50
2023-03-13T06:05:02.399Z,2.63
2023-03-13T06:07:30.244Z,2.08
2023-03-13T06:10:20.388Z,2.50
2023-03-13T06:12:55.614Z,2.20
2023-03-13T06:15:25.096Z,2.08
2023-03-13T06:17:56.255Z,2.05
2023-03-13T06:20:24.401Z,2.70
2023-03-13T06:22:58.215Z,1.90
2023-03-13T06:25:26.576Z,2.17
2023-03-13T06:27:54.676Z,2.28
2023-03-13T06:30:23.969Z,2.25
2023-03-13T06:32:51.999Z,2.00
2023-03-13T06:35:20.040Z,1.52
2023-03-13T06:37:48.524Z,1.88
2023-03-13T06:40:26.767Z,1.42
2023-03-13T06:42:57.559Z,1.80
2023-03-13T06:45:27.480Z,2.00
2023-03-13T06:48:01.982Z,2.35
2023-03-13T06:50:31.473Z,2.03
2023-03-13T06:53:00.406Z,1.80
2023-03-13T06:55:29.508Z,1.67
2023-03-13T06:58:00.239Z,1.77
2023-03-13T07:00:42.451Z,1.90
2023-03-13T07:03:15.844Z,1.58
2023-03-13T07:05:58.496Z,1.75
2023-03-13T07:08:33.263Z,1.60
2023-03-13T07:11:21.314Z,2.33
2023-03-13T07:14:00.462Z,2.00
2023-03-13T07:16:42.281Z,1.60
2023-03-13T07:19:22.120Z,1.25
2023-03-13T07:22:22.474Z,1.80
2023-03-13T07:25:09.429Z,1.58
2023-03-13T07:27:51.500Z,1.90
2023-03-13T07:30:30.731Z,1.52
2023-03-13T07:33:07.992Z,2.17
2023-03-13T07:38:12.649Z,1.63
2023-03-13T07:43:30.709Z,2.13
2023-03-13T07:46:07.420Z,1.58
2023-03-13T07:48:44.078Z,1.75
2023-03-13T07:51:30.299Z,2.15
2023-03-13T07:54:22.900Z,2.03
2023-03-13T07:57:16.229Z,1.88
2023-03-13T07:59:44.607Z,1.90
2023-03-13T08:02:14.736Z,3.60
2023-03-13T08:04:43.400Z,2.15
2023-03-13T08:07:12.799Z,1.88
2023-03-13T08:09:41.670Z,1.88
2023-03-13T08:12:13.585Z,1.95
2023-03-13T08:14:48.639Z,2.42
2023-03-13T08:17:25.057Z,2.95
2023-03-13T08:20:13.565Z,3.55
2023-03-13T08:23:06.360Z,4.22
2023-03-13T08:25:47.384Z,2.72
2023-03-13T08:28:23.577Z,3.10
2023-03-13T08:31:50.630Z,3.95
2023-03-13T08:34:23.038Z,2.92
2023-03-13T08:36:53.403Z,3.50
2023-03-13T08:42:26.188Z,2.67
2023-03-13T08:48:32.667Z,3.78
2023-03-13T08:51:47.592Z,3.35
2023-03-13T08:58:02.645Z,2.63
2023-03-13T09:00:31.060Z,3.90
2023-03-13T09:03:02.816Z,3.05
2023-03-13T09:06:02.782Z,3.60
2023-03-13T09:09:06.142Z,3.90
2023-03-13T09:11:47.095Z,3.80
2023-03-13T09:14:28.985Z,3.88
2023-03-13T09:20:08.381Z,3.80
2023-03-13T09:22:52.959Z,3.30
2023-03-13T09:25:20.407Z,2.63
2023-03-13T09:27:49.832Z,3.15
2023-03-13T09:30:17.353Z,3.40
2023-03-13T09:32:44.685Z,2.90
2023-03-13T09:35:11.987Z,2.35
2023-03-13T09:37:39.396Z,2.50
2023-03-13T09:40:08.524Z,1.98
2023-03-13T09:42:50.084Z,2.78
2023-03-13T09:45:28.490Z,1.95
2023-03-13T09:47:58.545Z,2.25
2023-03-13T09:50:27.738Z,2.40
2023-03-13T09:52:59.649Z,2.50
2023-03-13T09:55:32.248Z,2.10
2023-03-13T09:58:00.692Z,2.00
2023-03-13T10:00:31.173Z,2.60
2023-03-13T10:03:07.684Z,2.50
2023-03-13T10:05:36.969Z,3.75
2023-03-13T10:08:19.329Z,3.50
2023-03-13T10:10:48.684Z,3.05
2023-03-13T10:13:23.616Z,2.72
2023-03-13T10:15:55.981Z,2.58
2023-03-13T10:18:23.865Z,4.30
2023-03-13T10:20:53.113Z,4.32
2023-03-13T10:23:40.855Z,3.70
2023-03-13T10:26:15.212Z,1.70
2023-03-13T10:28:42.530Z,2.15
2023-03-13T10:31:17.912Z,2.25
2023-03-13T10:33:46.667Z,1.63
2023-03-13T10:36:14.012Z,1.63
2023-03-13T10:38:51.962Z,2.05
2023-03-13T10:41:33.643Z,2.13
2023-03-13T10:44:05.119Z,2.60
2023-03-13T10:46:35.441Z,2.33
2023-03-13T10:49:04.700Z,2.08
2023-03-13T10:51:37.560Z,2.20
2023-03-13T10:54:23.017Z,2.38
2023-03-13T10:56:51.200Z,3.28
2023-03-13T10:59:21.344Z,2.78
2023-03-13T11:01:49.066Z,2.70
2023-03-13T11:04:32.751Z,2.28
2023-03-13T11:07:06.336Z,2.20
2023-03-13T11:09:35.433Z,2.85
2023-03-13T11:12:05.666Z,2.80
2023-03-13T11:14:32.974Z,3.00
2023-03-13T11:17:29.070Z,2.58
2023-03-13T11:19:58.722Z,3.50
2023-03-13T11:23:21.204Z,3.05
2023-03-13T11:25:51.291Z,3.83
2023-03-13T11:28:26.810Z,3.97
2023-03-13T11:30:54.365Z,2.90
2023-03-13T11:33:30.559Z,3.55
2023-03-13T11:36:01.875Z,2.67
2023-03-13T11:38:37.472Z,1.92
2023-03-13T11:41:43.863Z,2.30
2023-03-13T11:44:30.580Z,1.77
2023-03-13T11:47:19.590Z,1.83
2023-03-13T11:50:11.004Z,1.60
2023-03-13T11:53:13.877Z,2.53
2023-03-13T11:55:59.286Z,1.98
2023-03-13T11:58:39.059Z,2.72
2023-03-13T12:01:09.560Z,2.13
2023-03-13T12:03:39.365Z,2.47
2023-03-13T12:06:15.892Z,3.00
2023-03-13T12:08:50.958Z,2.40
2023-03-13T12:11:26.823Z,2.33
2023-03-13T12:13:58.941Z,2.20
2023-03-13T12:17:04.156Z,2.75
2023-03-13T12:19:49.480Z,2.38
2023-03-13T12:22:23.368Z,3.35
2023-03-13T12:25:00.443Z,3.08
2023-03-13T12:27:32.858Z,3.33
2023-03-13T12:30:18.207Z,2.28
2023-03-13T12:32:50.199Z,2.90
2023-03-13T12:35:33.306Z,2.80
2023-03-13T12:38:19.183Z,3.00
2023-03-13T12:41:13.064Z,3.75
2023-03-13T12:43:40.822Z,3.50
2023-03-13T12:46:37.195Z,2.97
2023-03-13T12:49:27.639Z,3.25
2023-03-13T12:52:18.164Z,4.32
2023-03-13T12:55:11.993Z,4.70
2023-03-13T12:58:08.117Z,4.95
2023-03-13T13:00:35.639Z,6.68
2023-03-13T13:03:16.377Z,5.95
2023-03-13T13:06:02.006Z,5.20
2023-03-13T13:08:33.995Z,5.55
2023-03-13T13:11:39.277Z,5.05
2023-03-13T13:14:17.020Z,4.72
2023-03-13T13:16:58.677Z,5.82
2023-03-13T13:19:25.905Z,6.07
2023-03-13T13:22:31.089Z,4.47
2023-03-13T13:24:59.792Z,5.38
2023-03-13T13:27:36.444Z,7.65
2023-03-13T13:30:04.760Z,10.02
2023-03-13T13:32:41.612Z,4.90
2023-03-13T13:35:33.904Z,4.57
2023-03-13T13:38:21.648Z,5.40
2023-03-13T13:41:11.287Z,5.53
2023-03-13T13:43:50.891Z,6.70
2023-03-13T13:46:31.420Z,2.85
2023-03-13T13:49:07.602Z,4.38
2023-03-13T13:51:42.756Z,3.15
2023-03-13T13:54:13.040Z,3.75
2023-03-13T13:56:47.157Z,5.47
2023-03-13T13:59:20.465Z,5.03
2023-03-13T14:01:48.959Z,5.00
2023-03-13T14:04:28.667Z,4.38
2023-03-13T14:06:57.777Z,4.13
2023-03-13T14:09:36.352Z,3.83
2023-03-13T14:12:25.262Z,4.57
2023-03-13T14:15:17.474Z,4.97
2023-03-13T14:17:54.287Z,3.55
2023-03-13T14:20:33.467Z,5.03
2023-03-13T14:23:12.202Z,3.55
2023-03-13T14:25:46.852Z,3.70
2023-03-13T14:28:21.464Z,3.25
2023-03-13T14:30:50.465Z,3.95
2023-03-13T14:33:17.783Z,6.95
2023-03-13T14:35:45.149Z,4.55
2023-03-13T14:38:23.959Z,4.15
2023-03-13T14:40:52.046Z,3.72
2023-03-13T14:43:40.844Z,6.90
2023-03-13T14:46:30.692Z,4.82
2023-03-13T14:49:06.639Z,3.97
2023-03-13T14:51:34.301Z,4.07
2023-03-13T14:54:02.368Z,4.28
2023-03-13T14:56:42.638Z,3.13
2023-03-13T14:59:18.250Z,3.17
2023-03-13T15:01:45.925Z,3.33
2023-03-13T15:04:14.995Z,3.50
2023-03-13T15:06:42.809Z,4.00
2023-03-13T15:09:09.926Z,3.42
2023-03-13T15:11:54.835Z,2.83
2023-03-13T15:14:38.830Z,6.63
2023-03-13T15:17:14.089Z,5.93
2023-03-13T15:19:42.111Z,5.00
2023-03-13T15:22:12.824Z,4.95
2023-03-13T15:24:56.189Z,3.38
2023-03-13T15:27:33.111Z,4.55
2023-03-13T15:30:01.926Z,6.25
2023-03-13T15:32:31.116Z,6.03
2023-03-13T15:34:58.666Z,5.28
2023-03-13T15:37:26.256Z,7.57
2023-03-13T15:39:53.890Z,5.85
2023-03-13T15:42:24.208Z,6.10
2023-03-13T15:44:51.710Z,6.00
2023-03-13T15:47:21.463Z,7.10
2023-03-13T15:49:49.448Z,11.38
2023-03-13T15:52:22.682Z,11.38
2023-03-13T15:54:50.544Z,9.95
2023-03-13T15:57:23.304Z,10.85
2023-03-13T15:59:51.595Z,7.93
2023-03-13T16:02:21.346Z,7.38
2023-03-13T16:04:48.683Z,5.45
2023-03-13T16:07:18.656Z,4.65
2023-03-13T16:09:45.926Z,4.05
2023-03-13T16:12:14.157Z,4.78
2023-03-13T16:14:42.931Z,3.75
2023-03-13T16:17:17.390Z,5.03
2023-03-13T16:19:45.889Z,4.80
2023-03-13T16:22:13.628Z,5.28
2023-03-13T16:24:41.147Z,5.40
2023-03-13T16:27:18.563Z,5.38
2023-03-13T16:29:46.682Z,6.95
2023-03-13T16:32:16.489Z,7.70
2023-03-13T16:34:43.927Z,7.43
2023-03-13T16:37:15.750Z,7.45
2023-03-13T16:39:43.724Z,5.75
2023-03-13T16:42:11.431Z,5.22
2023-03-13T16:44:38.897Z,6.88
2023-03-13T16:47:28.091Z,5.85
2023-03-13T16:49:55.628Z,6.03
2023-03-13T16:52:23.083Z,5.28
2023-03-13T16:54:50.300Z,6.38
2023-03-13T16:57:19.987Z,5.40
2023-03-13T16:59:47.206Z,4.45
2023-03-13T17:02:15.842Z,5.72
2023-03-13T17:04:44.997Z,6.57
2023-03-13T17:07:23.376Z,8.48
2023-03-13T17:09:51.067Z,7.45
2023-03-13T17:12:19.048Z,7.55
2023-03-13T17:14:46.409Z,9.10
2023-03-13T17:17:20.496Z,8.55
2023-03-13T17:19:47.810Z,10.32
2023-03-13T17:22:19.682Z,10.70
2023-03-13T17:24:48.582Z,10.38
2023-03-13T17:27:18.679Z,9.52
2023-03-13T17:29:46.003Z,8.75
2023-03-13T17:32:14.245Z,8.85
2023-03-13T17:34:45.655Z,8.93
2023-03-13T17:37:20.983Z,8.02
2023-03-13T17:39:48.951Z,7.47
2023-03-13T17:42:16.326Z,6.97
2023-03-13T17:44:43.601Z,8.40
2023-03-13T17:47:15.950Z,6.97
2023-03-13T17:49:44.181Z,5.13
2023-03-13T17:52:15.912Z,5.45
2023-03-13T17:54:43.681Z,4.72
2023-03-13T17:57:18.420Z,5.10
2023-03-13T17:59:46.621Z,5.28
2023-03-13T18:02:14.657Z,4.80
2023-03-13T18:04:45.793Z,4.38
2023-03-13T18:07:25.022Z,4.75
2023-03-13T18:09:52.311Z,4.65
2023-03-13T18:12:19.744Z,4.10
2023-03-13T18:14:47.127Z,4.75
2023-03-13T18:17:23.614Z,4.93
2023-03-13T18:19:52.647Z,5.78
2023-03-13T18:22:25.304Z,5.90
2023-03-13T18:24:56.357Z,6.25
2023-03-13T18:27:23.717Z,5.57
2023-03-13T18:29:50.962Z,6.43
2023-03-13T18:32:18.379Z,6.07
2023-03-13T18:34:45.725Z,6.07
2023-03-13T18:37:30.867Z,5.43
2023-03-13T18:39:58.818Z,5.78
2023-03-13T18:42:29.379Z,5.93
2023-03-13T18:44:56.663Z,5.47
2023-03-13T18:47:27.256Z,5.30
2023-03-13T18:49:55.601Z,5.20
2023-03-13T18:52:23.300Z,5.25
2023-03-13T18:54:52.918Z,5.65
2023-03-13T18:57:20.632Z,5.03
2023-03-13T18:59:48.311Z,4.60
2023-03-13T19:02:16.912Z,5.22
2023-03-13T19:04:44.615Z,5.55
2023-03-13T19:07:32.799Z,6.40
2023-03-13T19:10:01.666Z,6.40
2023-03-13T19:12:32.471Z,5.88
2023-03-13T19:15:00.021Z,4.78
2023-03-13T19:17:29.047Z,5.35
2023-03-13T19:20:01.797Z,4.22
2023-03-13T19:22:29.234Z,4.22
2023-03-13T19:24:56.763Z,4.47
2023-03-13T19:27:26.700Z,4.43
2023-03-13T19:29:54.301Z,5.40
2023-03-13T19:32:21.647Z,8.23
2023-03-13T19:34:49.106Z,8.75
2023-03-13T19:37:16.383Z,6.88
2023-03-13T19:39:43.778Z,7.75
2023-03-13T19:42:11.584Z,7.35
2023-03-13T19:44:44.374Z,7.65
2023-03-13T19:47:14.678Z,7.00
2023-03-13T19:49:41.914Z,4.88
2023-03-13T19:52:09.185Z,3.90
2023-03-13T19:54:36.575Z,3.05
2023-03-13T19:57:04.063Z,3.72
2023-03-13T19:59:35.286Z,4.07
2023-03-13T20:02:04.267Z,4.07
2023-03-13T20:04:33.148Z,3.95
2023-03-13T20:07:02.335Z,3.70
2023-03-13T20:09:30.668Z,3.95
2023-03-13T20:11:58.148Z,3.97
2023-03-13T20:14:33.206Z,3.20
2023-03-13T20:17:01.218Z,3.83
2023-03-13T20:19:29.686Z,3.95
2023-03-13T20:22:03.472Z,3.83
2023-03-13T20:24:33.924Z,3.70
2023-03-13T20:27:06.407Z,3.28
2023-03-13T20:29:33.920Z,3.35
2023-03-13T20:32:04.554Z,3.35
2023-03-13T20:34:32.196Z,3.85
2023-03-13T20:37:00.079Z,3.38
2023-03-13T20:39:27.725Z,3.00
2023-03-13T20:41:56.310Z,3.53
2023-03-13T20:44:23.739Z,4.50
2023-03-13T20:46:52.928Z,3.40
2023-03-13T20:49:20.537Z,3.92
2023-03-13T20:51:47.761Z,2.85
2023-03-13T20:54:15.381Z,3.42
2023-03-13T20:56:42.607Z,3.90
2023-03-13T20:59:10.171Z,3.00
2023-03-13T21:01:37.874Z,3.28
2023-03-13T21:04:05.321Z,3.90
2023-03-13T21:06:33.967Z,3.05
2023-03-13T21:09:04.421Z,3.30
2023-03-13T21:11:33.827Z,3.03
2023-03-13T21:14:01.056Z,2.88
2023-03-13T21:16:32.907Z,3.15
2023-03-13T21:19:02.173Z,3.15
2023-03-13T21:21:29.913Z,3.75
2023-03-13T21:23:57.220Z,2.72
2023-03-13T21:26:24.908Z,2.88
2023-03-13T21:28:53.080Z,2.92
2023-03-13T21:31:20.606Z,2.53
2023-03-13T21:33:48.590Z,3.85
2023-03-13T21:36:18.374Z,4.50
2023-03-13T21:38:48.060Z,4.70
2023-03-13T21:41:17.864Z,3.70
2023-03-13T21:43:45.985Z,2.67
2023-03-13T21:46:14.664Z,3.28
2023-03-13T21:48:43.234Z,3.10
2023-03-13T21:51:10.924Z,3.10
2023-03-13T21:53:38.454Z,3.05
2023-03-13T21:56:06.271Z,2.88
2023-03-13T21:58:33.544Z,2.53
2023-03-13T22:01:00.883Z,2.50
2023-03-13T22:03:28.268Z,3.05
2023-03-13T22:05:58.728Z,3.43
2023-03-13T22:08:26.643Z,3.65
2023-03-13T22:10:55.105Z,4.20
2023-03-13T22:13:22.971Z,4.85
2023-03-13T22:15:52.750Z,3.38
2023-03-13T22:18:23.446Z,4.20
2023-03-13T22:20:51.161Z,4.63
2023-03-13T22:23:18.587Z,4.15
2023-03-13T22:25:48.224Z,3.90
2023-03-13T22:28:15.635Z,3.80
2023-03-13T22:30:43.707Z,3.70
2023-03-13T22:33:11.609Z,4.30
2023-03-13T22:35:39.157Z,3.35
2023-03-13T22:38:06.428Z,3.67
2023-03-13T22:40:34.227Z,4.22
2023-03-13T22:43:01.462Z,3.50
2023-03-13T22:45:30.478Z,3.20
2023-03-13T22:47:57.962Z,3.53
2023-03-13T22:50:25.999Z,3.10
2023-03-13T22:52:53.438Z,3.72
2023-03-13T22:55:25.382Z,3.65
2023-03-13T22:57:52.603Z,3.60
2023-03-13T23:00:20.530Z,4.03
2023-03-13T23:02:47.767Z,3.80
2023-03-13T23:05:15.742Z,3.25
2023-03-13T23:07:44.739Z,3.40
2023-03-13T23:10:13.171Z,3.05
2023-03-13T23:12:40.397Z,3.47
2023-03-13T23:15:08.972Z,3.22
2023-03-13T23:17:38.461Z,3.17
2023-03-13T23:22:44.344Z,3.03
2023-03-13T23:25:12.111Z,2.55
2023-03-13T23:27:43.023Z,2.85
2023-03-13T23:30:12.246Z,2.40
2023-03-13T23:32:41.601Z,2.53
2023-03-13T23:35:09.386Z,3.13
2023-03-13T23:37:36.790Z,3.47
2023-03-13T23:40:11.890Z,3.38
2023-03-13T23:42:39.584Z,2.70
2023-03-13T23:45:07.613Z,3.30
2023-03-13T23:47:35.531Z,3.25
2023-03-13T23:50:02.933Z,3.25
2023-03-13T23:52:30.829Z,3.45
2023-03-13T23:54:58.276Z,2.85
2023-03-13T23:57:32.313Z,3.47
